sensor_id;sensor_type;location;lat;lon;timestamp;temperature;humidity
14670;DHT22;7423;48.722;9.350;2024-01-30T00:00:48;5.80;99.90
14670;DHT22;7423;48.722;9.350;2024-01-30T00:03:16;5.80;99.90
14670;DHT22;7423;48.722;9.350;2024-01-30T00:05:42;5.80;99.90
14670;DHT22;7423;48.722;9.350;2024-01-30T00:08:10;5.80;99.90
14670;DHT22;7423;48.722;9.350;2024-01-30T00:10:38;5.80;99.90
14670;DHT22;7423;48.722;9.350;2024-01-30T00:13:04;5.80;99.90
14670;DHT22;7423;48.722;9.350;2024-01-30T00:15:31;5.70;99.90
14670;DHT22;7423;48.722;9.350;2024-01-30T00:17:59;5.70;99.90
14670;DHT22;7423;48.722;9.350;2024-01-30T00:20:26;5.70;99.90
14670;DHT22;7423;48.722;9.350;2024-01-30T00:22:53;5.60;99.90
14670;DHT22;7423;48.722;9.350;2024-01-30T00:25:20;5.60;99.90
14670;DHT22;7423;48.722;9.350;2024-01-30T00:27:47;5.50;99.90
14670;DHT22;7423;48.722;9.350;2024-01-30T00:30:15;5.90;99.90
14670;DHT22;7423;48.722;9.350;2024-01-30T00:32:42;5.70;99.90
14670;DHT22;7423;48.722;9.350;2024-01-30T00:35:10;5.50;99.90
14670;DHT22;7423;48.722;9.350;2024-01-30T00:37:37;5.50;99.90
14670;DHT22;7423;48.722;9.350;2024-01-30T00:40:05;5.50;99.90
14670;DHT22;7423;48.722;9.350;2024-01-30T00:42:32;5.50;99.90
14670;DHT22;7423;48.722;9.350;2024-01-30T00:45:00;5.50;99.90
14670;DHT22;7423;48.722;9.350;2024-01-30T00:47:27;5.60;99.90
14670;DHT22;7423;48.722;9.350;2024-01-30T00:49:55;5.60;99.90
14670;DHT22;7423;48.722;9.350;2024-01-30T00:52:22;5.50;99.90
14670;DHT22;7423;48.722;9.350;2024-01-30T00:54:49;5.90;99.90
14670;DHT22;7423;48.722;9.350;2024-01-30T00:57:16;5.50;99.90
14670;DHT22;7423;48.722;9.350;2024-01-30T00:59:43;5.50;99.90
14670;DHT22;7423;48.722;9.350;2024-01-30T01:02:11;5.50;99.90
14670;DHT22;7423;48.722;9.350;2024-01-30T01:04:38;5.50;99.90
14670;DHT22;7423;48.722;9.350;2024-01-30T01:07:05;5.60;99.90
14670;DHT22;7423;48.722;9.350;2024-01-30T01:09:32;5.60;99.90
14670;DHT22;7423;48.722;9.350;2024-01-30T01:11:59;5.60;99.90
14670;DHT22;7423;48.722;9.350;2024-01-30T01:14:25;5.70;99.90
14670;DHT22;7423;48.722;9.350;2024-01-30T01:16:52;5.70;99.90
14670;DHT22;7423;48.722;9.350;2024-01-30T01:19:19;5.70;99.90
14670;DHT22;7423;48.722;9.350;2024-01-30T01:21:47;5.70;99.90
14670;DHT22;7423;48.722;9.350;2024-01-30T01:24:14;5.70;99.90
14670;DHT22;7423;48.722;9.350;2024-01-30T01:26:41;5.70;99.90
14670;DHT22;7423;48.722;9.350;2024-01-30T01:29:08;5.70;99.90
14670;DHT22;7423;48.722;9.350;2024-01-30T01:31:39;5.70;99.90
14670;DHT22;7423;48.722;9.350;2024-01-30T01:34:11;5.60;99.90
14670;DHT22;7423;48.722;9.350;2024-01-30T01:36:39;5.60;99.90
14670;DHT22;7423;48.722;9.350;2024-01-30T01:39:06;5.60;99.90
14670;DHT22;7423;48.722;9.350;2024-01-30T01:41:33;5.50;99.90
14670;DHT22;7423;48.722;9.350;2024-01-30T01:44:01;5.50;99.90
14670;DHT22;7423;48.722;9.350;2024-01-30T01:46:30;5.40;99.90
14670;DHT22;7423;48.722;9.350;2024-01-30T01:49:02;5.40;99.90
14670;DHT22;7423;48.722;9.350;2024-01-30T01:51:31;5.40;99.90
14670;DHT22;7423;48.722;9.350;2024-01-30T01:54:03;5.40;99.90
14670;DHT22;7423;48.722;9.350;2024-01-30T01:56:33;5.40;99.90
14670;DHT22;7423;48.722;9.350;2024-01-30T01:59:07;5.40;99.90
14670;DHT22;7423;48.722;9.350;2024-01-30T02:01:38;5.40;99.90
14670;DHT22;7423;48.722;9.350;2024-01-30T02:04:07;5.40;99.90
14670;DHT22;7423;48.722;9.350;2024-01-30T02:06:37;5.50;99.90
14670;DHT22;7423;48.722;9.350;2024-01-30T02:09:05;5.50;99.90
14670;DHT22;7423;48.722;9.350;2024-01-30T02:11:32;5.50;99.90
14670;DHT22;7423;48.722;9.350;2024-01-30T02:14:04;5.50;99.90
14670;DHT22;7423;48.722;9.350;2024-01-30T02:16:32;5.60;99.90
14670;DHT22;7423;48.722;9.350;2024-01-30T02:18:59;6.00;99.90
14670;DHT22;7423;48.722;9.350;2024-01-30T02:21:27;5.60;99.90
14670;DHT22;7423;48.722;9.350;2024-01-30T02:23:54;5.50;99.90
14670;DHT22;7423;48.722;9.350;2024-01-30T02:26:22;5.50;99.90
14670;DHT22;7423;48.722;9.350;2024-01-30T02:28:49;5.50;99.90
14670;DHT22;7423;48.722;9.350;2024-01-30T02:31:17;5.50;99.90
14670;DHT22;7423;48.722;9.350;2024-01-30T02:33:44;5.50;99.90
14670;DHT22;7423;48.722;9.350;2024-01-30T02:36:11;5.50;99.90
14670;DHT22;7423;48.722;9.350;2024-01-30T02:38:38;5.50;99.90
14670;DHT22;7423;48.722;9.350;2024-01-30T02:41:05;5.50;99.90
14670;DHT22;7423;48.722;9.350;2024-01-30T02:43:32;5.50;99.90
14670;DHT22;7423;48.722;9.350;2024-01-30T02:45:59;5.50;99.90
14670;DHT22;7423;48.722;9.350;2024-01-30T02:48:27;5.50;99.90
14670;DHT22;7423;48.722;9.350;2024-01-30T02:50:54;5.50;99.90
14670;DHT22;7423;48.722;9.350;2024-01-30T02:53:21;5.40;99.90
14670;DHT22;7423;48.722;9.350;2024-01-30T02:55:48;5.40;99.90
14670;DHT22;7423;48.722;9.350;2024-01-30T02:58:15;5.40;99.90
14670;DHT22;7423;48.722;9.350;2024-01-30T03:00:42;5.40;99.90
14670;DHT22;7423;48.722;9.350;2024-01-30T03:03:09;5.40;99.90
14670;DHT22;7423;48.722;9.350;2024-01-30T03:05:36;5.30;99.90
14670;DHT22;7423;48.722;9.350;2024-01-30T03:08:04;5.30;99.90
14670;DHT22;7423;48.722;9.350;2024-01-30T03:10:31;5.30;99.90
14670;DHT22;7423;48.722;9.350;2024-01-30T03:13:00;5.30;99.90
14670;DHT22;7423;48.722;9.350;2024-01-30T03:15:27;5.20;99.90
14670;DHT22;7423;48.722;9.350;2024-01-30T03:17:54;5.20;99.90
14670;DHT22;7423;48.722;9.350;2024-01-30T03:20:21;5.20;99.90
14670;DHT22;7423;48.722;9.350;2024-01-30T03:22:48;5.10;99.90
14670;DHT22;7423;48.722;9.350;2024-01-30T03:25:15;5.10;99.90
14670;DHT22;7423;48.722;9.350;2024-01-30T03:27:42;5.10;99.90
14670;DHT22;7423;48.722;9.350;2024-01-30T03:30:09;5.10;99.90
14670;DHT22;7423;48.722;9.350;2024-01-30T03:32:36;5.40;99.90
14670;DHT22;7423;48.722;9.350;2024-01-30T03:35:04;5.10;99.90
14670;DHT22;7423;48.722;9.350;2024-01-30T03:37:31;5.10;99.90
14670;DHT22;7423;48.722;9.350;2024-01-30T03:39:58;5.10;99.90
14670;DHT22;7423;48.722;9.350;2024-01-30T03:42:26;5.10;99.90
14670;DHT22;7423;48.722;9.350;2024-01-30T03:44:53;5.10;99.90
14670;DHT22;7423;48.722;9.350;2024-01-30T03:47:21;5.20;99.90
14670;DHT22;7423;48.722;9.350;2024-01-30T03:49:49;5.20;99.90
14670;DHT22;7423;48.722;9.350;2024-01-30T03:52:16;5.20;99.90
14670;DHT22;7423;48.722;9.350;2024-01-30T03:54:43;7.50;99.90
14670;DHT22;7423;48.722;9.350;2024-01-30T03:57:12;5.10;99.90
14670;DHT22;7423;48.722;9.350;2024-01-30T03:59:42;5.00;99.90
14670;DHT22;7423;48.722;9.350;2024-01-30T04:02:10;5.00;99.90
14670;DHT22;7423;48.722;9.350;2024-01-30T04:04:38;4.30;99.90
14670;DHT22;7423;48.722;9.350;2024-01-30T04:07:05;5.00;99.90
14670;DHT22;7423;48.722;9.350;2024-01-30T04:09:33;5.00;99.90
14670;DHT22;7423;48.722;9.350;2024-01-30T04:12:00;5.00;99.90
14670;DHT22;7423;48.722;9.350;2024-01-30T04:14:29;5.00;99.90
14670;DHT22;7423;48.722;9.350;2024-01-30T04:16:56;5.00;99.90
14670;DHT22;7423;48.722;9.350;2024-01-30T04:19:23;5.00;99.90
14670;DHT22;7423;48.722;9.350;2024-01-30T04:21:50;5.00;99.90
14670;DHT22;7423;48.722;9.350;2024-01-30T04:24:17;5.00;99.90
14670;DHT22;7423;48.722;9.350;2024-01-30T04:26:45;5.00;99.90
14670;DHT22;7423;48.722;9.350;2024-01-30T04:29:14;5.00;99.90
14670;DHT22;7423;48.722;9.350;2024-01-30T04:31:42;4.90;99.90
14670;DHT22;7423;48.722;9.350;2024-01-30T04:34:09;5.00;99.90
14670;DHT22;7423;48.722;9.350;2024-01-30T04:36:36;5.00;99.90
14670;DHT22;7423;48.722;9.350;2024-01-30T04:39:03;4.90;99.90
14670;DHT22;7423;48.722;9.350;2024-01-30T04:41:31;4.90;99.90
14670;DHT22;7423;48.722;9.350;2024-01-30T04:43:59;4.90;99.90
14670;DHT22;7423;48.722;9.350;2024-01-30T04:46:25;4.90;99.90
14670;DHT22;7423;48.722;9.350;2024-01-30T04:48:52;5.00;99.90
14670;DHT22;7423;48.722;9.350;2024-01-30T04:51:20;5.00;99.90
14670;DHT22;7423;48.722;9.350;2024-01-30T04:53:47;5.00;99.90
14670;DHT22;7423;48.722;9.350;2024-01-30T04:56:13;5.00;99.90
14670;DHT22;7423;48.722;9.350;2024-01-30T04:58:40;5.00;99.90
14670;DHT22;7423;48.722;9.350;2024-01-30T05:01:07;5.00;99.90
14670;DHT22;7423;48.722;9.350;2024-01-30T05:03:34;5.00;99.90
14670;DHT22;7423;48.722;9.350;2024-01-30T05:06:02;5.00;99.90
14670;DHT22;7423;48.722;9.350;2024-01-30T05:08:29;5.00;99.90
14670;DHT22;7423;48.722;9.350;2024-01-30T05:10:56;5.00;99.90
14670;DHT22;7423;48.722;9.350;2024-01-30T05:13:23;5.00;99.90
14670;DHT22;7423;48.722;9.350;2024-01-30T05:15:51;4.90;99.90
14670;DHT22;7423;48.722;9.350;2024-01-30T05:18:18;4.90;99.90
14670;DHT22;7423;48.722;9.350;2024-01-30T05:20:45;4.90;99.90
14670;DHT22;7423;48.722;9.350;2024-01-30T05:23:13;4.80;99.90
14670;DHT22;7423;48.722;9.350;2024-01-30T05:25:40;4.80;99.90
14670;DHT22;7423;48.722;9.350;2024-01-30T05:28:07;4.80;99.90
14670;DHT22;7423;48.722;9.350;2024-01-30T05:30:34;4.70;99.90
14670;DHT22;7423;48.722;9.350;2024-01-30T05:33:02;4.40;99.90
14670;DHT22;7423;48.722;9.350;2024-01-30T05:35:29;4.60;99.90
14670;DHT22;7423;48.722;9.350;2024-01-30T05:37:56;4.60;99.90
14670;DHT22;7423;48.722;9.350;2024-01-30T05:40:23;4.70;99.90
14670;DHT22;7423;48.722;9.350;2024-01-30T05:42:50;4.60;99.90
14670;DHT22;7423;48.722;9.350;2024-01-30T05:45:17;4.60;99.90
14670;DHT22;7423;48.722;9.350;2024-01-30T05:47:44;4.60;99.90
14670;DHT22;7423;48.722;9.350;2024-01-30T05:50:11;4.60;99.90
14670;DHT22;7423;48.722;9.350;2024-01-30T05:52:38;4.50;99.90
14670;DHT22;7423;48.722;9.350;2024-01-30T05:55:06;4.50;99.90
14670;DHT22;7423;48.722;9.350;2024-01-30T05:57:34;4.50;99.90
14670;DHT22;7423;48.722;9.350;2024-01-30T06:00:01;4.60;99.90
14670;DHT22;7423;48.722;9.350;2024-01-30T06:02:29;4.60;99.90
14670;DHT22;7423;48.722;9.350;2024-01-30T06:04:56;4.70;99.90
14670;DHT22;7423;48.722;9.350;2024-01-30T06:07:23;4.70;99.90
14670;DHT22;7423;48.722;9.350;2024-01-30T06:09:50;4.70;99.90
14670;DHT22;7423;48.722;9.350;2024-01-30T06:12:17;4.60;99.90
14670;DHT22;7423;48.722;9.350;2024-01-30T06:14:45;4.70;99.90
14670;DHT22;7423;48.722;9.350;2024-01-30T06:17:15;4.70;99.90
14670;DHT22;7423;48.722;9.350;2024-01-30T06:19:41;4.70;99.90
14670;DHT22;7423;48.722;9.350;2024-01-30T06:22:08;4.80;99.90
14670;DHT22;7423;48.722;9.350;2024-01-30T06:24:35;4.80;99.90
14670;DHT22;7423;48.722;9.350;2024-01-30T06:27:03;5.90;99.90
14670;DHT22;7423;48.722;9.350;2024-01-30T06:29:30;4.90;99.90
14670;DHT22;7423;48.722;9.350;2024-01-30T06:31:57;4.90;99.90
14670;DHT22;7423;48.722;9.350;2024-01-30T06:34:24;4.90;99.90
14670;DHT22;7423;48.722;9.350;2024-01-30T06:36:53;4.90;99.90
14670;DHT22;7423;48.722;9.350;2024-01-30T06:39:20;4.90;99.90
14670;DHT22;7423;48.722;9.350;2024-01-30T06:41:47;4.90;99.90
14670;DHT22;7423;48.722;9.350;2024-01-30T06:44:14;4.80;99.90
14670;DHT22;7423;48.722;9.350;2024-01-30T06:46:41;4.80;99.90
14670;DHT22;7423;48.722;9.350;2024-01-30T06:49:08;4.80;99.90
14670;DHT22;7423;48.722;9.350;2024-01-30T06:54:03;4.90;99.90
14670;DHT22;7423;48.722;9.350;2024-01-30T06:56:30;4.90;99.90
14670;DHT22;7423;48.722;9.350;2024-01-30T06:58:58;4.90;99.90
14670;DHT22;7423;48.722;9.350;2024-01-30T07:01:29;4.90;99.90
14670;DHT22;7423;48.722;9.350;2024-01-30T07:03:58;4.90;99.90
14670;DHT22;7423;48.722;9.350;2024-01-30T07:06:26;4.90;99.90
14670;DHT22;7423;48.722;9.350;2024-01-30T07:08:53;4.90;99.90
14670;DHT22;7423;48.722;9.350;2024-01-30T07:11:20;4.90;99.90
14670;DHT22;7423;48.722;9.350;2024-01-30T07:13:51;4.90;99.90
14670;DHT22;7423;48.722;9.350;2024-01-30T07:16:18;4.90;99.90
14670;DHT22;7423;48.722;9.350;2024-01-30T07:18:45;4.90;99.90
14670;DHT22;7423;48.722;9.350;2024-01-30T07:21:12;4.90;99.90
14670;DHT22;7423;48.722;9.350;2024-01-30T07:23:39;4.90;99.90
14670;DHT22;7423;48.722;9.350;2024-01-30T07:26:08;5.00;99.90
14670;DHT22;7423;48.722;9.350;2024-01-30T07:28:35;4.90;99.90
14670;DHT22;7423;48.722;9.350;2024-01-30T07:31:02;4.90;99.90
14670;DHT22;7423;48.722;9.350;2024-01-30T07:33:29;4.90;99.90
14670;DHT22;7423;48.722;9.350;2024-01-30T07:35:57;4.90;99.90
14670;DHT22;7423;48.722;9.350;2024-01-30T07:38:24;4.90;99.90
14670;DHT22;7423;48.722;9.350;2024-01-30T07:40:51;5.00;99.90
14670;DHT22;7423;48.722;9.350;2024-01-30T07:43:19;5.00;99.90
14670;DHT22;7423;48.722;9.350;2024-01-30T07:45:47;5.00;99.90
14670;DHT22;7423;48.722;9.350;2024-01-30T07:48:14;5.00;99.90
14670;DHT22;7423;48.722;9.350;2024-01-30T07:50:42;5.00;99.90
14670;DHT22;7423;48.722;9.350;2024-01-30T07:53:10;5.00;99.90
14670;DHT22;7423;48.722;9.350;2024-01-30T07:55:36;5.10;99.90
14670;DHT22;7423;48.722;9.350;2024-01-30T07:58:04;5.90;99.90
14670;DHT22;7423;48.722;9.350;2024-01-30T08:00:31;5.20;99.90
14670;DHT22;7423;48.722;9.350;2024-01-30T08:02:58;5.10;99.90
14670;DHT22;7423;48.722;9.350;2024-01-30T08:05:26;5.10;99.90
14670;DHT22;7423;48.722;9.350;2024-01-30T08:07:53;5.10;99.90
14670;DHT22;7423;48.722;9.350;2024-01-30T08:10:20;5.20;99.90
14670;DHT22;7423;48.722;9.350;2024-01-30T08:12:48;5.20;99.90
14670;DHT22;7423;48.722;9.350;2024-01-30T08:15:15;5.20;99.90
14670;DHT22;7423;48.722;9.350;2024-01-30T08:17:42;5.20;99.90
14670;DHT22;7423;48.722;9.350;2024-01-30T08:20:11;5.20;99.90
14670;DHT22;7423;48.722;9.350;2024-01-30T08:22:40;5.20;99.90
14670;DHT22;7423;48.722;9.350;2024-01-30T08:25:07;5.30;99.90
14670;DHT22;7423;48.722;9.350;2024-01-30T08:27:35;5.30;99.90
14670;DHT22;7423;48.722;9.350;2024-01-30T08:30:06;5.30;99.90
14670;DHT22;7423;48.722;9.350;2024-01-30T08:32:33;5.40;99.90
14670;DHT22;7423;48.722;9.350;2024-01-30T08:35:02;5.40;99.90
14670;DHT22;7423;48.722;9.350;2024-01-30T08:37:33;5.40;99.90
14670;DHT22;7423;48.722;9.350;2024-01-30T08:40:00;5.50;99.90
14670;DHT22;7423;48.722;9.350;2024-01-30T08:42:29;5.50;99.90
14670;DHT22;7423;48.722;9.350;2024-01-30T08:44:55;5.60;99.90
14670;DHT22;7423;48.722;9.350;2024-01-30T08:47:22;5.60;99.90
14670;DHT22;7423;48.722;9.350;2024-01-30T08:49:49;5.70;99.90
14670;DHT22;7423;48.722;9.350;2024-01-30T08:52:17;5.70;99.90
14670;DHT22;7423;48.722;9.350;2024-01-30T08:54:44;5.80;99.90
14670;DHT22;7423;48.722;9.350;2024-01-30T08:57:11;5.80;99.90
14670;DHT22;7423;48.722;9.350;2024-01-30T08:59:38;5.90;99.90
14670;DHT22;7423;48.722;9.350;2024-01-30T09:02:06;5.90;99.90
14670;DHT22;7423;48.722;9.350;2024-01-30T09:04:42;6.10;99.90
14670;DHT22;7423;48.722;9.350;2024-01-30T09:07:10;6.10;99.90
14670;DHT22;7423;48.722;9.350;2024-01-30T09:09:40;6.30;99.90
14670;DHT22;7423;48.722;9.350;2024-01-30T09:12:08;6.30;99.90
14670;DHT22;7423;48.722;9.350;2024-01-30T09:14:39;6.40;99.90
14670;DHT22;7423;48.722;9.350;2024-01-30T09:17:08;6.50;99.90
14670;DHT22;7423;48.722;9.350;2024-01-30T09:19:35;6.60;99.90
14670;DHT22;7423;48.722;9.350;2024-01-30T09:22:04;6.70;99.90
14670;DHT22;7423;48.722;9.350;2024-01-30T09:24:32;6.70;99.90
14670;DHT22;7423;48.722;9.350;2024-01-30T09:27:00;6.80;99.90
14670;DHT22;7423;48.722;9.350;2024-01-30T09:29:27;6.90;99.90
14670;DHT22;7423;48.722;9.350;2024-01-30T09:31:54;6.90;99.90
14670;DHT22;7423;48.722;9.350;2024-01-30T09:34:21;7.00;99.90
14670;DHT22;7423;48.722;9.350;2024-01-30T09:36:48;7.10;99.90
14670;DHT22;7423;48.722;9.350;2024-01-30T09:39:15;7.10;99.90
14670;DHT22;7423;48.722;9.350;2024-01-30T09:44:44;7.10;99.90
14670;DHT22;7423;48.722;9.350;2024-01-30T09:47:12;7.20;99.90
14670;DHT22;7423;48.722;9.350;2024-01-30T09:49:39;7.20;99.90
14670;DHT22;7423;48.722;9.350;2024-01-30T09:52:09;7.30;99.90
14670;DHT22;7423;48.722;9.350;2024-01-30T09:54:36;7.30;99.90
14670;DHT22;7423;48.722;9.350;2024-01-30T09:57:04;7.40;99.90
14670;DHT22;7423;48.722;9.350;2024-01-30T09:59:32;7.40;99.90
14670;DHT22;7423;48.722;9.350;2024-01-30T10:01:59;7.40;99.90
14670;DHT22;7423;48.722;9.350;2024-01-30T10:04:26;7.50;99.90
14670;DHT22;7423;48.722;9.350;2024-01-30T10:06:54;7.50;99.90
14670;DHT22;7423;48.722;9.350;2024-01-30T10:09:21;7.60;99.90
14670;DHT22;7423;48.722;9.350;2024-01-30T10:11:48;7.60;99.90
14670;DHT22;7423;48.722;9.350;2024-01-30T10:14:15;7.70;99.90
14670;DHT22;7423;48.722;9.350;2024-01-30T10:16:46;7.70;99.90
14670;DHT22;7423;48.722;9.350;2024-01-30T10:19:13;7.70;99.90
14670;DHT22;7423;48.722;9.350;2024-01-30T10:21:40;7.80;99.90
14670;DHT22;7423;48.722;9.350;2024-01-30T10:24:07;7.90;99.90
14670;DHT22;7423;48.722;9.350;2024-01-30T10:26:34;7.90;99.90
14670;DHT22;7423;48.722;9.350;2024-01-30T10:29:01;7.90;99.90
14670;DHT22;7423;48.722;9.350;2024-01-30T10:31:29;8.00;99.90
14670;DHT22;7423;48.722;9.350;2024-01-30T10:33:56;8.00;99.90
14670;DHT22;7423;48.722;9.350;2024-01-30T10:36:40;8.10;99.90
14670;DHT22;7423;48.722;9.350;2024-01-30T10:39:09;8.10;99.90
14670;DHT22;7423;48.722;9.350;2024-01-30T10:41:43;8.10;99.90
14670;DHT22;7423;48.722;9.350;2024-01-30T10:44:11;8.20;99.90
14670;DHT22;7423;48.722;9.350;2024-01-30T10:46:39;8.30;99.90
14670;DHT22;7423;48.722;9.350;2024-01-30T10:49:10;8.30;99.90
14670;DHT22;7423;48.722;9.350;2024-01-30T10:51:38;8.40;99.90
14670;DHT22;7423;48.722;9.350;2024-01-30T10:54:06;8.40;99.90
14670;DHT22;7423;48.722;9.350;2024-01-30T10:56:35;8.40;99.90
14670;DHT22;7423;48.722;9.350;2024-01-30T10:59:02;8.50;99.90
14670;DHT22;7423;48.722;9.350;2024-01-30T11:01:30;8.50;99.90
14670;DHT22;7423;48.722;9.350;2024-01-30T11:03:57;8.50;99.90
14670;DHT22;7423;48.722;9.350;2024-01-30T11:06:25;8.60;99.90
14670;DHT22;7423;48.722;9.350;2024-01-30T11:09:05;8.60;99.90
14670;DHT22;7423;48.722;9.350;2024-01-30T11:11:58;8.70;99.90
14670;DHT22;7423;48.722;9.350;2024-01-30T11:14:30;8.70;99.90
14670;DHT22;7423;48.722;9.350;2024-01-30T11:16:58;8.70;99.90
14670;DHT22;7423;48.722;9.350;2024-01-30T11:19:26;8.70;99.90
14670;DHT22;7423;48.722;9.350;2024-01-30T11:21:54;8.70;99.90
14670;DHT22;7423;48.722;9.350;2024-01-30T11:24:24;8.90;99.90
14670;DHT22;7423;48.722;9.350;2024-01-30T11:27:01;8.90;99.90
14670;DHT22;7423;48.722;9.350;2024-01-30T11:29:29;8.90;99.90
14670;DHT22;7423;48.722;9.350;2024-01-30T11:31:58;8.90;99.90
14670;DHT22;7423;48.722;9.350;2024-01-30T11:34:25;9.00;99.90
14670;DHT22;7423;48.722;9.350;2024-01-30T11:37:07;9.00;99.90
14670;DHT22;7423;48.722;9.350;2024-01-30T11:39:36;9.00;99.90
14670;DHT22;7423;48.722;9.350;2024-01-30T11:42:04;9.00;99.90
14670;DHT22;7423;48.722;9.350;2024-01-30T11:44:32;9.10;99.90
14670;DHT22;7423;48.722;9.350;2024-01-30T11:47:00;9.10;99.90
14670;DHT22;7423;48.722;9.350;2024-01-30T11:49:27;9.10;99.90
14670;DHT22;7423;48.722;9.350;2024-01-30T11:51:54;9.20;99.90
14670;DHT22;7423;48.722;9.350;2024-01-30T11:54:21;9.20;99.90
14670;DHT22;7423;48.722;9.350;2024-01-30T11:56:48;9.20;99.90
14670;DHT22;7423;48.722;9.350;2024-01-30T11:59:16;9.20;99.90
14670;DHT22;7423;48.722;9.350;2024-01-30T12:01:45;9.30;99.90
14670;DHT22;7423;48.722;9.350;2024-01-30T12:04:12;9.30;99.90
14670;DHT22;7423;48.722;9.350;2024-01-30T12:06:41;9.30;99.90
14670;DHT22;7423;48.722;9.350;2024-01-30T12:09:09;8.90;99.90
14670;DHT22;7423;48.722;9.350;2024-01-30T12:11:47;9.40;99.90
14670;DHT22;7423;48.722;9.350;2024-01-30T12:14:15;9.40;99.90
14670;DHT22;7423;48.722;9.350;2024-01-30T12:16:43;9.50;99.90
14670;DHT22;7423;48.722;9.350;2024-01-30T12:19:10;9.50;99.90
14670;DHT22;7423;48.722;9.350;2024-01-30T12:21:38;9.50;99.90
14670;DHT22;7423;48.722;9.350;2024-01-30T12:24:05;9.60;99.90
14670;DHT22;7423;48.722;9.350;2024-01-30T12:26:34;9.60;99.90
14670;DHT22;7423;48.722;9.350;2024-01-30T12:29:04;9.60;99.90
14670;DHT22;7423;48.722;9.350;2024-01-30T12:31:32;9.60;99.90
14670;DHT22;7423;48.722;9.350;2024-01-30T12:34:00;9.60;99.90
14670;DHT22;7423;48.722;9.350;2024-01-30T12:36:29;9.70;99.90
14670;DHT22;7423;48.722;9.350;2024-01-30T12:38:57;9.70;99.90
14670;DHT22;7423;48.722;9.350;2024-01-30T12:41:25;9.80;99.90
14670;DHT22;7423;48.722;9.350;2024-01-30T12:43:57;9.80;99.90
14670;DHT22;7423;48.722;9.350;2024-01-30T12:46:27;9.80;99.90
14670;DHT22;7423;48.722;9.350;2024-01-30T12:48:57;9.80;99.90
14670;DHT22;7423;48.722;9.350;2024-01-30T12:51:24;9.90;99.90
14670;DHT22;7423;48.722;9.350;2024-01-30T12:53:53;9.90;99.90
14670;DHT22;7423;48.722;9.350;2024-01-30T12:56:20;9.90;99.90
14670;DHT22;7423;48.722;9.350;2024-01-30T12:58:47;9.90;99.90
14670;DHT22;7423;48.722;9.350;2024-01-30T13:01:17;10.00;99.90
14670;DHT22;7423;48.722;9.350;2024-01-30T13:03:44;10.00;99.90
14670;DHT22;7423;48.722;9.350;2024-01-30T13:06:11;10.00;99.90
14670;DHT22;7423;48.722;9.350;2024-01-30T13:08:40;10.00;99.90
14670;DHT22;7423;48.722;9.350;2024-01-30T13:11:07;10.10;99.90
14670;DHT22;7423;48.722;9.350;2024-01-30T13:13:44;10.10;99.90
14670;DHT22;7423;48.722;9.350;2024-01-30T13:16:11;10.10;99.90
14670;DHT22;7423;48.722;9.350;2024-01-30T13:18:38;10.10;99.90
14670;DHT22;7423;48.722;9.350;2024-01-30T13:21:05;10.20;99.90
14670;DHT22;7423;48.722;9.350;2024-01-30T13:23:32;10.30;99.90
14670;DHT22;7423;48.722;9.350;2024-01-30T13:26:00;10.30;99.90
14670;DHT22;7423;48.722;9.350;2024-01-30T13:28:27;10.30;99.90
14670;DHT22;7423;48.722;9.350;2024-01-30T13:30:54;10.40;99.90
14670;DHT22;7423;48.722;9.350;2024-01-30T13:33:21;10.40;99.90
14670;DHT22;7423;48.722;9.350;2024-01-30T13:35:51;10.40;99.90
14670;DHT22;7423;48.722;9.350;2024-01-30T13:38:18;10.40;99.90
14670;DHT22;7423;48.722;9.350;2024-01-30T13:40:45;10.40;99.90
14670;DHT22;7423;48.722;9.350;2024-01-30T13:43:12;10.50;99.90
14670;DHT22;7423;48.722;9.350;2024-01-30T13:45:39;10.50;99.90
14670;DHT22;7423;48.722;9.350;2024-01-30T13:48:08;10.50;99.90
14670;DHT22;7423;48.722;9.350;2024-01-30T13:50:35;10.60;99.90
14670;DHT22;7423;48.722;9.350;2024-01-30T13:53:03;10.60;99.90
14670;DHT22;7423;48.722;9.350;2024-01-30T13:55:31;10.60;99.90
14670;DHT22;7423;48.722;9.350;2024-01-30T13:57:58;10.50;99.90
14670;DHT22;7423;48.722;9.350;2024-01-30T14:00:25;10.70;99.90
14670;DHT22;7423;48.722;9.350;2024-01-30T14:02:52;10.70;99.90
14670;DHT22;7423;48.722;9.350;2024-01-30T14:05:24;11.70;99.90
14670;DHT22;7423;48.722;9.350;2024-01-30T14:07:54;10.70;99.90
14670;DHT22;7423;48.722;9.350;2024-01-30T14:10:21;10.80;99.90
14670;DHT22;7423;48.722;9.350;2024-01-30T14:12:48;10.80;99.90
14670;DHT22;7423;48.722;9.350;2024-01-30T14:15:15;10.80;99.90
14670;DHT22;7423;48.722;9.350;2024-01-30T14:17:54;10.80;99.90
14670;DHT22;7423;48.722;9.350;2024-01-30T14:20:22;10.90;99.90
14670;DHT22;7423;48.722;9.350;2024-01-30T14:22:50;10.90;99.90
14670;DHT22;7423;48.722;9.350;2024-01-30T14:25:18;11.20;99.90
14670;DHT22;7423;48.722;9.350;2024-01-30T14:27:45;10.90;99.90
14670;DHT22;7423;48.722;9.350;2024-01-30T14:30:12;10.90;99.90
14670;DHT22;7423;48.722;9.350;2024-01-30T14:32:39;10.90;99.90
14670;DHT22;7423;48.722;9.350;2024-01-30T14:35:09;10.90;99.90
14670;DHT22;7423;48.722;9.350;2024-01-30T14:37:37;11.00;99.90
14670;DHT22;7423;48.722;9.350;2024-01-30T14:40:06;11.00;99.90
14670;DHT22;7423;48.722;9.350;2024-01-30T14:42:34;11.00;99.90
14670;DHT22;7423;48.722;9.350;2024-01-30T14:45:05;11.00;99.90
14670;DHT22;7423;48.722;9.350;2024-01-30T14:47:33;11.00;99.90
14670;DHT22;7423;48.722;9.350;2024-01-30T14:50:02;11.10;99.90
14670;DHT22;7423;48.722;9.350;2024-01-30T14:52:32;11.10;99.90
14670;DHT22;7423;48.722;9.350;2024-01-30T14:55:00;11.10;99.90
14670;DHT22;7423;48.722;9.350;2024-01-30T14:57:28;11.10;99.90
14670;DHT22;7423;48.722;9.350;2024-01-30T14:59:56;11.10;99.90
14670;DHT22;7423;48.722;9.350;2024-01-30T15:02:23;11.10;99.90
14670;DHT22;7423;48.722;9.350;2024-01-30T15:04:50;11.10;99.90
14670;DHT22;7423;48.722;9.350;2024-01-30T15:07:18;11.10;99.90
14670;DHT22;7423;48.722;9.350;2024-01-30T15:09:58;11.10;99.90
14670;DHT22;7423;48.722;9.350;2024-01-30T15:12:26;11.10;99.90
14670;DHT22;7423;48.722;9.350;2024-01-30T15:14:53;11.10;99.90
14670;DHT22;7423;48.722;9.350;2024-01-30T15:17:20;11.20;99.90
14670;DHT22;7423;48.722;9.350;2024-01-30T15:19:49;11.20;99.90
14670;DHT22;7423;48.722;9.350;2024-01-30T15:22:17;11.20;99.90
14670;DHT22;7423;48.722;9.350;2024-01-30T15:24:45;11.20;99.90
14670;DHT22;7423;48.722;9.350;2024-01-30T15:27:12;11.20;99.90
14670;DHT22;7423;48.722;9.350;2024-01-30T15:29:39;11.20;99.90
14670;DHT22;7423;48.722;9.350;2024-01-30T15:32:11;11.20;99.90
14670;DHT22;7423;48.722;9.350;2024-01-30T15:34:38;11.20;99.90
14670;DHT22;7423;48.722;9.350;2024-01-30T15:37:05;11.20;99.90
14670;DHT22;7423;48.722;9.350;2024-01-30T15:39:32;11.20;99.90
14670;DHT22;7423;48.722;9.350;2024-01-30T15:42:00;11.20;99.90
14670;DHT22;7423;48.722;9.350;2024-01-30T15:44:27;11.20;99.90
14670;DHT22;7423;48.722;9.350;2024-01-30T15:46:54;11.20;99.90
14670;DHT22;7423;48.722;9.350;2024-01-30T15:49:22;11.30;99.90
14670;DHT22;7423;48.722;9.350;2024-01-30T15:51:49;11.30;99.90
14670;DHT22;7423;48.722;9.350;2024-01-30T15:54:16;11.30;99.90
14670;DHT22;7423;48.722;9.350;2024-01-30T15:56:44;11.30;99.90
14670;DHT22;7423;48.722;9.350;2024-01-30T15:59:12;11.30;99.90
14670;DHT22;7423;48.722;9.350;2024-01-30T16:01:38;11.30;99.90
14670;DHT22;7423;48.722;9.350;2024-01-30T16:04:07;11.30;99.90
14670;DHT22;7423;48.722;9.350;2024-01-30T16:06:34;11.30;99.90
14670;DHT22;7423;48.722;9.350;2024-01-30T16:09:01;11.30;99.90